sensor_id;sensor_type;location;lat;lon;timestamp;temperature;humidity
22956;DHT22;40888;48.148;11.526;2023-06-22T00:02:21;22.20;99.90
22956;DHT22;40888;48.148;11.526;2023-06-22T00:04:47;22.20;99.90
22956;DHT22;40888;48.148;11.526;2023-06-22T00:07:14;22.20;99.90
22956;DHT22;40888;48.148;11.526;2023-06-22T00:09:39;22.00;99.90
22956;DHT22;40888;48.148;11.526;2023-06-22T00:12:11;22.10;99.90
22956;DHT22;40888;48.148;11.526;2023-06-22T00:14:37;22.10;99.90
22956;DHT22;40888;48.148;11.526;2023-06-22T00:17:03;22.10;99.90
22956;DHT22;40888;48.148;11.526;2023-06-22T00:19:29;22.10;99.90
22956;DHT22;40888;48.148;11.526;2023-06-22T00:21:55;22.10;99.90
22956;DHT22;40888;48.148;11.526;2023-06-22T00:24:21;22.20;99.90
22956;DHT22;40888;48.148;11.526;2023-06-22T00:26:48;22.20;99.90
22956;DHT22;40888;48.148;11.526;2023-06-22T00:29:14;22.10;99.90
22956;DHT22;40888;48.148;11.526;2023-06-22T00:31:40;22.00;99.90
22956;DHT22;40888;48.148;11.526;2023-06-22T00:34:06;21.90;99.90
22956;DHT22;40888;48.148;11.526;2023-06-22T00:36:35;21.90;99.90
22956;DHT22;40888;48.148;11.526;2023-06-22T00:39:00;21.90;99.90
22956;DHT22;40888;48.148;11.526;2023-06-22T00:41:26;22.00;99.90
22956;DHT22;40888;48.148;11.526;2023-06-22T00:43:54;22.00;99.90
22956;DHT22;40888;48.148;11.526;2023-06-22T00:46:21;22.00;99.90
22956;DHT22;40888;48.148;11.526;2023-06-22T00:48:48;22.00;99.90
22956;DHT22;40888;48.148;11.526;2023-06-22T00:51:14;21.80;99.90
22956;DHT22;40888;48.148;11.526;2023-06-22T00:53:40;21.70;99.90
22956;DHT22;40888;48.148;11.526;2023-06-22T00:56:06;21.60;99.90
22956;DHT22;40888;48.148;11.526;2023-06-22T00:58:36;21.60;99.90
22956;DHT22;40888;48.148;11.526;2023-06-22T01:01:02;21.50;99.90
22956;DHT22;40888;48.148;11.526;2023-06-22T01:03:28;21.50;99.90
22956;DHT22;40888;48.148;11.526;2023-06-22T01:06:02;21.40;99.90
22956;DHT22;40888;48.148;11.526;2023-06-22T01:08:53;21.40;99.90
22956;DHT22;40888;48.148;11.526;2023-06-22T01:11:32;21.40;99.90
22956;DHT22;40888;48.148;11.526;2023-06-22T01:16:32;21.40;99.90
22956;DHT22;40888;48.148;11.526;2023-06-22T01:19:03;21.30;99.90
22956;DHT22;40888;48.148;11.526;2023-06-22T01:21:32;21.30;99.90
22956;DHT22;40888;48.148;11.526;2023-06-22T01:24:22;21.30;99.90
22956;DHT22;40888;48.148;11.526;2023-06-22T01:27:20;21.20;99.90
22956;DHT22;40888;48.148;11.526;2023-06-22T01:29:51;21.10;99.90
22956;DHT22;40888;48.148;11.526;2023-06-22T01:32:18;21.10;99.90
22956;DHT22;40888;48.148;11.526;2023-06-22T01:34:46;21.10;99.90
22956;DHT22;40888;48.148;11.526;2023-06-22T01:37:14;21.00;99.90
22956;DHT22;40888;48.148;11.526;2023-06-22T01:39:40;21.00;99.90
22956;DHT22;40888;48.148;11.526;2023-06-22T01:42:06;21.00;99.90
22956;DHT22;40888;48.148;11.526;2023-06-22T01:44:33;21.00;99.90
22956;DHT22;40888;48.148;11.526;2023-06-22T01:46:59;21.00;99.90
22956;DHT22;40888;48.148;11.526;2023-06-22T01:49:25;21.00;99.90
22956;DHT22;40888;48.148;11.526;2023-06-22T01:51:51;21.00;99.90
22956;DHT22;40888;48.148;11.526;2023-06-22T01:54:17;21.10;99.90
22956;DHT22;40888;48.148;11.526;2023-06-22T01:56:43;21.10;99.90
22956;DHT22;40888;48.148;11.526;2023-06-22T01:59:27;21.10;99.90
22956;DHT22;40888;48.148;11.526;2023-06-22T02:01:59;21.20;99.90
22956;DHT22;40888;48.148;11.526;2023-06-22T02:04:51;21.10;99.90
22956;DHT22;40888;48.148;11.526;2023-06-22T02:07:19;21.20;99.90
22956;DHT22;40888;48.148;11.526;2023-06-22T02:09:48;21.20;99.90
22956;DHT22;40888;48.148;11.526;2023-06-22T02:12:18;21.20;99.90
22956;DHT22;40888;48.148;11.526;2023-06-22T02:14:47;21.30;99.90
22956;DHT22;40888;48.148;11.526;2023-06-22T02:17:13;21.30;99.90
22956;DHT22;40888;48.148;11.526;2023-06-22T02:19:42;21.20;99.90
22956;DHT22;40888;48.148;11.526;2023-06-22T02:22:08;21.30;99.90
22956;DHT22;40888;48.148;11.526;2023-06-22T02:24:34;21.30;99.90
22956;DHT22;40888;48.148;11.526;2023-06-22T02:27:01;21.30;99.90
22956;DHT22;40888;48.148;11.526;2023-06-22T02:29:28;21.40;99.90
22956;DHT22;40888;48.148;11.526;2023-06-22T02:31:54;21.40;99.90
22956;DHT22;40888;48.148;11.526;2023-06-22T02:34:21;21.40;99.90
22956;DHT22;40888;48.148;11.526;2023-06-22T02:36:47;21.30;99.90
22956;DHT22;40888;48.148;11.526;2023-06-22T02:39:25;21.30;99.90
22956;DHT22;40888;48.148;11.526;2023-06-22T02:41:53;21.30;99.90
22956;DHT22;40888;48.148;11.526;2023-06-22T02:44:20;21.30;99.90
22956;DHT22;40888;48.148;11.526;2023-06-22T02:46:47;21.30;99.90
22956;DHT22;40888;48.148;11.526;2023-06-22T02:49:13;21.30;99.90
22956;DHT22;40888;48.148;11.526;2023-06-22T02:51:41;21.20;99.90
22956;DHT22;40888;48.148;11.526;2023-06-22T02:54:07;21.20;99.90
22956;DHT22;40888;48.148;11.526;2023-06-22T02:56:36;21.20;99.90
22956;DHT22;40888;48.148;11.526;2023-06-22T02:59:02;21.20;99.90
22956;DHT22;40888;48.148;11.526;2023-06-22T03:01:28;21.10;99.90
22956;DHT22;40888;48.148;11.526;2023-06-22T03:03:58;21.10;99.90
22956;DHT22;40888;48.148;11.526;2023-06-22T03:06:24;21.00;99.90
22956;DHT22;40888;48.148;11.526;2023-06-22T03:08:59;21.00;99.90
22956;DHT22;40888;48.148;11.526;2023-06-22T03:11:25;21.00;99.90
22956;DHT22;40888;48.148;11.526;2023-06-22T03:13:50;21.00;99.90
22956;DHT22;40888;48.148;11.526;2023-06-22T03:16:19;21.00;99.90
22956;DHT22;40888;48.148;11.526;2023-06-22T03:18:45;21.00;99.90
22956;DHT22;40888;48.148;11.526;2023-06-22T03:21:10;20.90;99.90
22956;DHT22;40888;48.148;11.526;2023-06-22T03:23:36;20.90;99.90
22956;DHT22;40888;48.148;11.526;2023-06-22T03:26:02;20.90;99.90
22956;DHT22;40888;48.148;11.526;2023-06-22T03:28:28;20.90;99.90
22956;DHT22;40888;48.148;11.526;2023-06-22T03:30:53;20.90;99.90
22956;DHT22;40888;48.148;11.526;2023-06-22T03:33:19;20.80;99.90
22956;DHT22;40888;48.148;11.526;2023-06-22T03:35:45;20.70;99.90
22956;DHT22;40888;48.148;11.526;2023-06-22T03:38:11;20.70;99.90
22956;DHT22;40888;48.148;11.526;2023-06-22T03:40:36;20.70;99.90
22956;DHT22;40888;48.148;11.526;2023-06-22T03:43:02;20.70;99.90
22956;DHT22;40888;48.148;11.526;2023-06-22T03:45:28;20.70;99.90
22956;DHT22;40888;48.148;11.526;2023-06-22T03:47:53;20.70;99.90
22956;DHT22;40888;48.148;11.526;2023-06-22T03:50:19;20.70;99.90
22956;DHT22;40888;48.148;11.526;2023-06-22T03:52:46;20.80;99.90
22956;DHT22;40888;48.148;11.526;2023-06-22T03:55:12;20.70;99.90
22956;DHT22;40888;48.148;11.526;2023-06-22T03:57:38;20.80;99.90
22956;DHT22;40888;48.148;11.526;2023-06-22T04:00:04;20.80;99.90
22956;DHT22;40888;48.148;11.526;2023-06-22T04:02:31;20.80;99.90
22956;DHT22;40888;48.148;11.526;2023-06-22T04:04:57;20.80;99.90
22956;DHT22;40888;48.148;11.526;2023-06-22T04:07:22;20.80;99.90
22956;DHT22;40888;48.148;11.526;2023-06-22T04:09:48;20.80;99.90
22956;DHT22;40888;48.148;11.526;2023-06-22T04:12:14;20.70;99.90
22956;DHT22;40888;48.148;11.526;2023-06-22T04:14:39;20.80;99.90
22956;DHT22;40888;48.148;11.526;2023-06-22T04:17:05;20.80;99.90
22956;DHT22;40888;48.148;11.526;2023-06-22T04:19:31;20.70;99.90
22956;DHT22;40888;48.148;11.526;2023-06-22T04:21:57;20.70;99.90
22956;DHT22;40888;48.148;11.526;2023-06-22T04:24:22;20.70;99.90
22956;DHT22;40888;48.148;11.526;2023-06-22T04:26:48;20.80;99.90
22956;DHT22;40888;48.148;11.526;2023-06-22T04:29:14;20.80;99.90
22956;DHT22;40888;48.148;11.526;2023-06-22T04:31:40;20.80;99.90
22956;DHT22;40888;48.148;11.526;2023-06-22T04:34:07;20.80;99.90
22956;DHT22;40888;48.148;11.526;2023-06-22T04:36:37;20.80;99.90
22956;DHT22;40888;48.148;11.526;2023-06-22T04:39:07;20.80;99.90
22956;DHT22;40888;48.148;11.526;2023-06-22T04:41:39;20.80;99.90
22956;DHT22;40888;48.148;11.526;2023-06-22T04:44:12;20.70;99.90
22956;DHT22;40888;48.148;11.526;2023-06-22T04:46:38;20.80;99.90
22956;DHT22;40888;48.148;11.526;2023-06-22T04:49:08;20.70;99.90
22956;DHT22;40888;48.148;11.526;2023-06-22T04:51:41;20.70;99.90
22956;DHT22;40888;48.148;11.526;2023-06-22T04:54:08;20.80;99.90
22956;DHT22;40888;48.148;11.526;2023-06-22T04:56:35;20.80;99.90
22956;DHT22;40888;48.148;11.526;2023-06-22T04:59:01;20.80;99.90
22956;DHT22;40888;48.148;11.526;2023-06-22T05:01:27;20.90;99.90
22956;DHT22;40888;48.148;11.526;2023-06-22T05:03:52;20.90;99.90
22956;DHT22;40888;48.148;11.526;2023-06-22T05:06:22;20.80;99.90
22956;DHT22;40888;48.148;11.526;2023-06-22T05:08:55;20.80;99.90
22956;DHT22;40888;48.148;11.526;2023-06-22T05:11:27;20.80;99.90
22956;DHT22;40888;48.148;11.526;2023-06-22T05:13:53;20.90;99.90
22956;DHT22;40888;48.148;11.526;2023-06-22T05:16:20;21.00;99.90
22956;DHT22;40888;48.148;11.526;2023-06-22T05:18:52;21.00;99.90
22956;DHT22;40888;48.148;11.526;2023-06-22T05:21:22;20.90;99.90
22956;DHT22;40888;48.148;11.526;2023-06-22T05:23:47;21.00;99.90
22956;DHT22;40888;48.148;11.526;2023-06-22T05:26:13;21.20;99.90
22956;DHT22;40888;48.148;11.526;2023-06-22T05:28:39;21.30;99.90
22956;DHT22;40888;48.148;11.526;2023-06-22T05:31:04;21.40;99.90
22956;DHT22;40888;48.148;11.526;2023-06-22T05:33:30;21.40;99.90
22956;DHT22;40888;48.148;11.526;2023-06-22T05:35:56;21.40;99.90
22956;DHT22;40888;48.148;11.526;2023-06-22T05:38:22;21.50;99.90
22956;DHT22;40888;48.148;11.526;2023-06-22T05:40:47;21.60;99.90
22956;DHT22;40888;48.148;11.526;2023-06-22T05:43:13;21.70;99.90
22956;DHT22;40888;48.148;11.526;2023-06-22T05:45:39;21.80;99.90
22956;DHT22;40888;48.148;11.526;2023-06-22T05:48:05;21.90;99.90
22956;DHT22;40888;48.148;11.526;2023-06-22T05:50:31;21.90;99.90
22956;DHT22;40888;48.148;11.526;2023-06-22T05:52:56;22.00;99.90
22956;DHT22;40888;48.148;11.526;2023-06-22T05:55:22;22.00;99.90
22956;DHT22;40888;48.148;11.526;2023-06-22T05:57:48;22.00;99.90
22956;DHT22;40888;48.148;11.526;2023-06-22T06:00:14;22.10;99.90
22956;DHT22;40888;48.148;11.526;2023-06-22T06:02:40;22.20;99.90
22956;DHT22;40888;48.148;11.526;2023-06-22T06:05:12;22.20;99.90
22956;DHT22;40888;48.148;11.526;2023-06-22T06:07:45;22.20;99.90
22956;DHT22;40888;48.148;11.526;2023-06-22T06:10:11;22.30;99.90
22956;DHT22;40888;48.148;11.526;2023-06-22T06:12:37;22.40;99.90
22956;DHT22;40888;48.148;11.526;2023-06-22T06:15:03;22.40;99.90
22956;DHT22;40888;48.148;11.526;2023-06-22T06:17:29;22.40;99.90
22956;DHT22;40888;48.148;11.526;2023-06-22T06:19:55;22.50;99.90
22956;DHT22;40888;48.148;11.526;2023-06-22T06:22:21;22.50;99.90
22956;DHT22;40888;48.148;11.526;2023-06-22T06:24:49;22.60;99.90
22956;DHT22;40888;48.148;11.526;2023-06-22T06:27:15;22.70;99.90
22956;DHT22;40888;48.148;11.526;2023-06-22T06:29:44;22.80;99.90
22956;DHT22;40888;48.148;11.526;2023-06-22T06:32:19;22.80;99.90
22956;DHT22;40888;48.148;11.526;2023-06-22T06:37:37;23.00;99.90
22956;DHT22;40888;48.148;11.526;2023-06-22T06:40:10;23.00;99.90
22956;DHT22;40888;48.148;11.526;2023-06-22T06:42:41;23.00;99.90
22956;DHT22;40888;48.148;11.526;2023-06-22T06:45:22;23.10;99.90
22956;DHT22;40888;48.148;11.526;2023-06-22T06:47:51;23.20;99.90
22956;DHT22;40888;48.148;11.526;2023-06-22T06:50:18;23.30;99.90
22956;DHT22;40888;48.148;11.526;2023-06-22T06:52:44;23.20;99.90
22956;DHT22;40888;48.148;11.526;2023-06-22T06:55:13;23.30;99.90
22956;DHT22;40888;48.148;11.526;2023-06-22T06:57:40;23.30;99.90
22956;DHT22;40888;48.148;11.526;2023-06-22T07:00:10;23.40;99.90
22956;DHT22;40888;48.148;11.526;2023-06-22T07:02:39;23.50;99.90
22956;DHT22;40888;48.148;11.526;2023-06-22T07:05:05;23.60;99.90
22956;DHT22;40888;48.148;11.526;2023-06-22T07:07:32;23.70;99.90
22956;DHT22;40888;48.148;11.526;2023-06-22T07:09:58;23.80;99.90
22956;DHT22;40888;48.148;11.526;2023-06-22T07:12:24;24.00;99.90
22956;DHT22;40888;48.148;11.526;2023-06-22T07:14:49;24.00;99.90
22956;DHT22;40888;48.148;11.526;2023-06-22T07:17:16;24.10;99.90
22956;DHT22;40888;48.148;11.526;2023-06-22T07:19:42;24.20;99.90
22956;DHT22;40888;48.148;11.526;2023-06-22T07:22:08;24.30;99.90
22956;DHT22;40888;48.148;11.526;2023-06-22T07:24:33;24.40;99.90
22956;DHT22;40888;48.148;11.526;2023-06-22T07:26:59;24.40;99.90
22956;DHT22;40888;48.148;11.526;2023-06-22T07:29:25;24.60;99.90
22956;DHT22;40888;48.148;11.526;2023-06-22T07:31:52;24.70;99.90
22956;DHT22;40888;48.148;11.526;2023-06-22T07:34:18;24.70;99.90
22956;DHT22;40888;48.148;11.526;2023-06-22T07:36:45;24.80;99.90
22956;DHT22;40888;48.148;11.526;2023-06-22T07:39:11;24.90;99.90
22956;DHT22;40888;48.148;11.526;2023-06-22T07:41:40;24.90;99.90
22956;DHT22;40888;48.148;11.526;2023-06-22T07:44:08;24.80;99.90
22956;DHT22;40888;48.148;11.526;2023-06-22T07:46:34;25.20;99.90
22956;DHT22;40888;48.148;11.526;2023-06-22T07:49:00;25.20;99.90
22956;DHT22;40888;48.148;11.526;2023-06-22T07:51:26;25.30;99.90
22956;DHT22;40888;48.148;11.526;2023-06-22T07:53:52;25.50;99.90
22956;DHT22;40888;48.148;11.526;2023-06-22T07:56:18;25.60;99.90
22956;DHT22;40888;48.148;11.526;2023-06-22T07:58:47;25.50;99.90
22956;DHT22;40888;48.148;11.526;2023-06-22T08:01:17;25.50;99.90
22956;DHT22;40888;48.148;11.526;2023-06-22T08:03:44;25.70;99.90
22956;DHT22;40888;48.148;11.526;2023-06-22T08:06:10;25.80;99.90
22956;DHT22;40888;48.148;11.526;2023-06-22T08:08:36;25.90;99.90
22956;DHT22;40888;48.148;11.526;2023-06-22T08:11:02;25.90;99.90
22956;DHT22;40888;48.148;11.526;2023-06-22T08:13:28;26.10;99.90
22956;DHT22;40888;48.148;11.526;2023-06-22T08:15:54;26.30;99.90
22956;DHT22;40888;48.148;11.526;2023-06-22T08:18:20;26.20;99.90
22956;DHT22;40888;48.148;11.526;2023-06-22T08:20:46;26.30;99.90
22956;DHT22;40888;48.148;11.526;2023-06-22T08:23:14;26.30;99.90
22956;DHT22;40888;48.148;11.526;2023-06-22T08:25:40;26.50;99.90
22956;DHT22;40888;48.148;11.526;2023-06-22T08:28:05;26.50;99.90
22956;DHT22;40888;48.148;11.526;2023-06-22T08:30:31;26.50;99.90
22956;DHT22;40888;48.148;11.526;2023-06-22T08:32:57;26.40;99.90
22956;DHT22;40888;48.148;11.526;2023-06-22T08:35:23;26.70;99.90
22956;DHT22;40888;48.148;11.526;2023-06-22T08:37:49;26.70;99.90
22956;DHT22;40888;48.148;11.526;2023-06-22T08:40:20;27.10;96.50
22956;DHT22;40888;48.148;11.526;2023-06-22T08:42:46;27.10;95.10
22956;DHT22;40888;48.148;11.526;2023-06-22T08:45:12;27.20;94.20
22956;DHT22;40888;48.148;11.526;2023-06-22T08:47:38;27.40;91.80
22956;DHT22;40888;48.148;11.526;2023-06-22T08:50:05;27.40;90.70
22956;DHT22;40888;48.148;11.526;2023-06-22T08:52:32;27.30;92.30
22956;DHT22;40888;48.148;11.526;2023-06-22T08:54:58;27.10;96.00
22956;DHT22;40888;48.148;11.526;2023-06-22T08:57:23;27.20;96.00
22956;DHT22;40888;48.148;11.526;2023-06-22T08:59:49;27.40;95.50
22956;DHT22;40888;48.148;11.526;2023-06-22T09:02:17;27.60;91.40
22956;DHT22;40888;48.148;11.526;2023-06-22T09:04:43;27.70;91.60
22956;DHT22;40888;48.148;11.526;2023-06-22T09:07:09;27.70;91.10
22956;DHT22;40888;48.148;11.526;2023-06-22T09:09:35;27.80;88.40
22956;DHT22;40888;48.148;11.526;2023-06-22T09:12:00;28.00;84.80
22956;DHT22;40888;48.148;11.526;2023-06-22T09:14:26;28.10;87.70
22956;DHT22;40888;48.148;11.526;2023-06-22T09:16:52;28.30;80.80
22956;DHT22;40888;48.148;11.526;2023-06-22T09:19:18;28.30;84.10
22956;DHT22;40888;48.148;11.526;2023-06-22T09:21:43;28.20;84.70
22956;DHT22;40888;48.148;11.526;2023-06-22T09:24:09;28.40;79.80
22956;DHT22;40888;48.148;11.526;2023-06-22T09:26:35;28.60;76.70
22956;DHT22;40888;48.148;11.526;2023-06-22T09:29:00;28.70;78.90
22956;DHT22;40888;48.148;11.526;2023-06-22T09:31:26;28.30;81.90
22956;DHT22;40888;48.148;11.526;2023-06-22T09:33:53;28.30;78.80
22956;DHT22;40888;48.148;11.526;2023-06-22T09:36:23;28.50;78.10
22956;DHT22;40888;48.148;11.526;2023-06-22T09:38:49;28.80;72.90
22956;DHT22;40888;48.148;11.526;2023-06-22T09:41:22;28.90;74.60
22956;DHT22;40888;48.148;11.526;2023-06-22T09:43:48;29.00;74.50
22956;DHT22;40888;48.148;11.526;2023-06-22T09:46:17;29.20;74.10
22956;DHT22;40888;48.148;11.526;2023-06-22T09:48:43;29.10;72.70
22956;DHT22;40888;48.148;11.526;2023-06-22T09:51:08;29.40;68.70
22956;DHT22;40888;48.148;11.526;2023-06-22T09:53:34;29.30;68.70
22956;DHT22;40888;48.148;11.526;2023-06-22T09:56:01;29.50;66.10
22956;DHT22;40888;48.148;11.526;2023-06-22T09:58:27;29.60;66.10
22956;DHT22;40888;48.148;11.526;2023-06-22T10:00:53;29.50;68.50
22956;DHT22;40888;48.148;11.526;2023-06-22T10:03:20;29.40;69.60
22956;DHT22;40888;48.148;11.526;2023-06-22T10:05:46;29.50;69.80
22956;DHT22;40888;48.148;11.526;2023-06-22T10:08:12;29.70;69.60
22956;DHT22;40888;48.148;11.526;2023-06-22T10:10:38;29.60;68.70
22956;DHT22;40888;48.148;11.526;2023-06-22T10:13:08;29.80;68.40
22956;DHT22;40888;48.148;11.526;2023-06-22T10:15:35;29.70;67.40
22956;DHT22;40888;48.148;11.526;2023-06-22T10:18:01;29.90;67.00
22956;DHT22;40888;48.148;11.526;2023-06-22T10:20:27;30.10;64.20
22956;DHT22;40888;48.148;11.526;2023-06-22T10:22:54;30.10;65.50
22956;DHT22;40888;48.148;11.526;2023-06-22T10:25:20;30.10;66.30
22956;DHT22;40888;48.148;11.526;2023-06-22T10:27:46;30.00;66.50
22956;DHT22;40888;48.148;11.526;2023-06-22T10:30:12;30.40;64.50
22956;DHT22;40888;48.148;11.526;2023-06-22T10:32:39;30.70;61.60
22956;DHT22;40888;48.148;11.526;2023-06-22T10:35:05;30.60;61.70
22956;DHT22;40888;48.148;11.526;2023-06-22T10:37:31;30.80;60.90
22956;DHT22;40888;48.148;11.526;2023-06-22T10:39:57;31.10;59.90
22956;DHT22;40888;48.148;11.526;2023-06-22T10:42:23;31.00;59.20
22956;DHT22;40888;48.148;11.526;2023-06-22T10:44:49;31.00;62.20
22956;DHT22;40888;48.148;11.526;2023-06-22T10:47:15;31.10;62.00
22956;DHT22;40888;48.148;11.526;2023-06-22T10:49:41;30.90;64.00
22956;DHT22;40888;48.148;11.526;2023-06-22T10:52:08;30.90;64.50
22956;DHT22;40888;48.148;11.526;2023-06-22T10:54:35;30.90;62.80
22956;DHT22;40888;48.148;11.526;2023-06-22T10:57:01;31.10;62.70
22956;DHT22;40888;48.148;11.526;2023-06-22T10:59:28;31.30;61.90
22956;DHT22;40888;48.148;11.526;2023-06-22T11:01:55;31.40;60.80
22956;DHT22;40888;48.148;11.526;2023-06-22T11:04:21;31.40;62.50
22956;DHT22;40888;48.148;11.526;2023-06-22T11:06:48;31.50;59.10
22956;DHT22;40888;48.148;11.526;2023-06-22T11:09:14;31.50;59.40
22956;DHT22;40888;48.148;11.526;2023-06-22T11:11:44;31.40;59.30
22956;DHT22;40888;48.148;11.526;2023-06-22T11:14:10;31.00;60.60
22956;DHT22;40888;48.148;11.526;2023-06-22T11:16:36;31.00;61.00
22956;DHT22;40888;48.148;11.526;2023-06-22T11:19:02;31.20;61.30
22956;DHT22;40888;48.148;11.526;2023-06-22T11:21:28;31.20;61.50
22956;DHT22;40888;48.148;11.526;2023-06-22T11:23:54;31.30;61.50
22956;DHT22;40888;48.148;11.526;2023-06-22T11:26:20;31.30;61.70
22956;DHT22;40888;48.148;11.526;2023-06-22T11:28:46;31.30;61.90
22956;DHT22;40888;48.148;11.526;2023-06-22T11:31:12;31.50;61.30
22956;DHT22;40888;48.148;11.526;2023-06-22T11:33:38;31.50;60.50
22956;DHT22;40888;48.148;11.526;2023-06-22T11:36:04;31.80;59.80
22956;DHT22;40888;48.148;11.526;2023-06-22T11:38:30;32.00;59.60
22956;DHT22;40888;48.148;11.526;2023-06-22T11:40:58;31.90;59.00
22956;DHT22;40888;48.148;11.526;2023-06-22T11:43:25;32.10;58.60
22956;DHT22;40888;48.148;11.526;2023-06-22T11:45:50;32.20;58.70
22956;DHT22;40888;48.148;11.526;2023-06-22T11:48:16;32.70;55.90
22956;DHT22;40888;48.148;11.526;2023-06-22T11:50:42;32.50;56.50
22956;DHT22;40888;48.148;11.526;2023-06-22T11:53:08;32.70;56.90
22956;DHT22;40888;48.148;11.526;2023-06-22T11:55:33;32.70;55.50
22956;DHT22;40888;48.148;11.526;2023-06-22T11:57:59;32.60;57.00
22956;DHT22;40888;48.148;11.526;2023-06-22T12:00:32;32.90;55.00
22956;DHT22;40888;48.148;11.526;2023-06-22T12:02:57;32.80;55.90
22956;DHT22;40888;48.148;11.526;2023-06-22T12:05:23;33.00;55.40
22956;DHT22;40888;48.148;11.526;2023-06-22T12:07:53;33.00;56.50
22956;DHT22;40888;48.148;11.526;2023-06-22T12:10:20;33.00;54.20
22956;DHT22;40888;48.148;11.526;2023-06-22T12:12:46;33.30;52.10
22956;DHT22;40888;48.148;11.526;2023-06-22T12:15:12;33.60;53.30
22956;DHT22;40888;48.148;11.526;2023-06-22T12:17:37;33.80;53.40
22956;DHT22;40888;48.148;11.526;2023-06-22T12:20:04;34.10;51.40
22956;DHT22;40888;48.148;11.526;2023-06-22T12:22:34;34.00;52.00
22956;DHT22;40888;48.148;11.526;2023-06-22T12:25:01;34.10;51.70
22956;DHT22;40888;48.148;11.526;2023-06-22T12:27:27;33.70;52.00
22956;DHT22;40888;48.148;11.526;2023-06-22T12:29:52;33.70;51.90
22956;DHT22;40888;48.148;11.526;2023-06-22T12:32:18;34.10;51.50
22956;DHT22;40888;48.148;11.526;2023-06-22T12:34:44;34.00;50.80
22956;DHT22;40888;48.148;11.526;2023-06-22T12:37:10;33.90;51.00
22956;DHT22;40888;48.148;11.526;2023-06-22T12:39:36;33.70;51.80
22956;DHT22;40888;48.148;11.526;2023-06-22T12:42:02;33.60;52.40
22956;DHT22;40888;48.148;11.526;2023-06-22T12:44:28;33.70;52.20
22956;DHT22;40888;48.148;11.526;2023-06-22T12:46:54;33.50;52.30
22956;DHT22;40888;48.148;11.526;2023-06-22T12:49:20;33.40;52.10
22956;DHT22;40888;48.148;11.526;2023-06-22T12:51:45;33.50;52.70
22956;DHT22;40888;48.148;11.526;2023-06-22T12:54:11;33.50;52.00
22956;DHT22;40888;48.148;11.526;2023-06-22T12:56:38;33.60;52.60
22956;DHT22;40888;48.148;11.526;2023-06-22T12:59:04;33.70;52.20
22956;DHT22;40888;48.148;11.526;2023-06-22T13:01:31;33.90;51.80
22956;DHT22;40888;48.148;11.526;2023-06-22T13:04:00;33.70;51.80
22956;DHT22;40888;48.148;11.526;2023-06-22T13:06:26;33.20;53.00
22956;DHT22;40888;48.148;11.526;2023-06-22T13:08:52;33.10;54.50
22956;DHT22;40888;48.148;11.526;2023-06-22T13:11:17;33.50;53.00
22956;DHT22;40888;48.148;11.526;2023-06-22T13:13:45;33.70;52.10
22956;DHT22;40888;48.148;11.526;2023-06-22T13:16:11;34.10;51.10
22956;DHT22;40888;48.148;11.526;2023-06-22T13:18:36;34.20;51.10
22956;DHT22;40888;48.148;11.526;2023-06-22T13:21:03;33.80;51.10
22956;DHT22;40888;48.148;11.526;2023-06-22T13:23:29;33.70;53.50
22956;DHT22;40888;48.148;11.526;2023-06-22T13:25:55;33.80;53.80
22956;DHT22;40888;48.148;11.526;2023-06-22T13:28:21;34.40;51.00
22956;DHT22;40888;48.148;11.526;2023-06-22T13:30:47;34.90;49.60
22956;DHT22;40888;48.148;11.526;2023-06-22T13:33:13;35.00;48.50
22956;DHT22;40888;48.148;11.526;2023-06-22T13:35:39;34.60;49.70
22956;DHT22;40888;48.148;11.526;2023-06-22T13:38:11;34.80;49.90
22956;DHT22;40888;48.148;11.526;2023-06-22T13:40:37;34.50;50.40
22956;DHT22;40888;48.148;11.526;2023-06-22T13:43:04;34.60;50.40
22956;DHT22;40888;48.148;11.526;2023-06-22T13:45:30;35.10;48.40
22956;DHT22;40888;48.148;11.526;2023-06-22T13:47:56;34.90;48.80
22956;DHT22;40888;48.148;11.526;2023-06-22T13:50:21;34.60;49.20
22956;DHT22;40888;48.148;11.526;2023-06-22T13:52:47;34.40;49.50
22956;DHT22;40888;48.148;11.526;2023-06-22T13:55:13;34.70;49.30
22956;DHT22;40888;48.148;11.526;2023-06-22T13:57:40;34.80;49.20
22956;DHT22;40888;48.148;11.526;2023-06-22T14:00:07;34.40;49.60
22956;DHT22;40888;48.148;11.526;2023-06-22T14:02:34;34.30;50.80
22956;DHT22;40888;48.148;11.526;2023-06-22T14:05:00;34.30;50.30
22956;DHT22;40888;48.148;11.526;2023-06-22T14:07:26;34.40;49.60
22956;DHT22;40888;48.148;11.526;2023-06-22T14:09:51;34.60;49.70
22956;DHT22;40888;48.148;11.526;2023-06-22T14:12:17;34.50;49.40
22956;DHT22;40888;48.148;11.526;2023-06-22T14:14:43;34.50;48.30
22956;DHT22;40888;48.148;11.526;2023-06-22T14:17:10;35.00;47.50
22956;DHT22;40888;48.148;11.526;2023-06-22T14:19:37;35.10;47.90
22956;DHT22;40888;48.148;11.526;2023-06-22T14:22:03;34.80;48.10
22956;DHT22;40888;48.148;11.526;2023-06-22T14:24:29;34.70;47.90
22956;DHT22;40888;48.148;11.526;2023-06-22T14:29:21;35.00;46.70
22956;DHT22;40888;48.148;11.526;2023-06-22T14:31:48;35.30;46.00
22956;DHT22;40888;48.148;11.526;2023-06-22T14:34:15;35.80;44.70
22956;DHT22;40888;48.148;11.526;2023-06-22T14:36:41;36.20;44.10
22956;DHT22;40888;48.148;11.526;2023-06-22T14:39:07;35.90;44.50
22956;DHT22;40888;48.148;11.526;2023-06-22T14:41:33;35.90;44.80
22956;DHT22;40888;48.148;11.526;2023-06-22T14:43:59;35.90;44.40
22956;DHT22;40888;48.148;11.526;2023-06-22T14:46:25;35.90;44.40
22956;DHT22;40888;48.148;11.526;2023-06-22T14:48:50;35.90;43.60
22956;DHT22;40888;48.148;11.526;2023-06-22T14:51:16;35.80;44.10
22956;DHT22;40888;48.148;11.526;2023-06-22T14:53:43;35.90;43.60
22956;DHT22;40888;48.148;11.526;2023-06-22T14:56:09;35.90;42.90
22956;DHT22;40888;48.148;11.526;2023-06-22T14:58:35;36.30;42.20
22956;DHT22;40888;48.148;11.526;2023-06-22T15:01:02;36.30;42.00
22956;DHT22;40888;48.148;11.526;2023-06-22T15:03:29;35.90;42.30
22956;DHT22;40888;48.148;11.526;2023-06-22T15:05:56;35.70;41.70
22956;DHT22;40888;48.148;11.526;2023-06-22T15:08:22;35.60;41.00
22956;DHT22;40888;48.148;11.526;2023-06-22T15:10:48;35.30;41.90
22956;DHT22;40888;48.148;11.526;2023-06-22T15:13:13;35.80;41.70
22956;DHT22;40888;48.148;11.526;2023-06-22T15:15:39;35.90;41.10
22956;DHT22;40888;48.148;11.526;2023-06-22T15:18:05;36.20;41.20
22956;DHT22;40888;48.148;11.526;2023-06-22T15:20:31;36.70;39.70
22956;DHT22;40888;48.148;11.526;2023-06-22T15:22:57;36.30;39.90